Louisa, VA (23093)

7:30 AM EDT on September 28, 2016 (GMT -0400)
Louisa - Northside | | Change Station

Elev 371 ft 38.04 °N, 78.01 °W | Updated 2 minutes ago

Overcast
Overcast
64.9 °F
Feels Like 64.9 °F
N
0.0
Wind Variable Wind from WNW
Gusts 5.0 mph

Today
High -- | Low -- °F
--% Chance of Precip.
Yesterday
High -- | Low -- °F
Precip. -- in
Pressure 29.93 in
Visibility 0.8 miles
Clouds Overcast 300 ft
Dew Point 64 °F
Humidity 98%
Rainfall 0.02 in
Snow Depth Not available.
7:05 AM 6:58 PM
Waning Crescent, 6% visible
METAR KLKU 281115Z AUTO 36004KT 3/4SM BR OVC003 21/21 A2993 RMK AO2
Pressure 29.93 in
Visibility 0.8 miles
Clouds Overcast 300 ft
Dew Point 64 °F
Humidity 98%
Rainfall 0.02 in
Snow Depth Not available.
7:05 AM 6:58 PM
Waning Crescent, 6% visible
METAR KLKU 281115Z AUTO 36004KT 3/4SM BR OVC003 21/21 A2993 RMK AO2

10-Day Weather Forecast

Almanac

Astronomy

Sep. 28, 2016 Rise Set
Actual Time
Civil Twilight
Nautical Twilight
Astronomical Twilight
Moon
Length of Visible Light
Length of Day
Tomorrow will be .
, % of the Moon is Illuminated

Today's Extremes

State Highs State Lows

Community

WunderPhotos

Upload Photos

1,942,232 photos uploaded!

WunderBlog® & News

Nearby

Air Quality

  Air Quality AQ Index Pollutant
Not available.

Snow Depth

Station Depth Elevation

Earthquake Activity

City Distance Mag. Time & Date
Minimum magnitude displayed is 2.5.

Coastal Water Temperatures

Place Temperature

Stations

Nearby Weather Stations

Station Location Temp. Windchill Dew Point Humidity Wind Precip. Elev Updated Type
                   

Watches & Warnings

There are currently no watches in effect.